createdAt,value
2023-04-30T00:00:47.056Z,99435.13
2023-04-30T00:03:17.533Z,99429.56
2023-04-30T00:05:46.301Z,99433.59
2023-04-30T00:08:14.935Z,99426.06
2023-04-30T00:10:43.800Z,99434.47
2023-04-30T00:13:14.079Z,99432.09
2023-04-30T00:15:42.813Z,99439.03
2023-04-30T00:18:11.947Z,99431.59
2023-04-30T00:20:42.107Z,99429.47
2023-04-30T00:23:11.029Z,99435.06
2023-04-30T00:25:39.720Z,99429.72
2023-04-30T00:28:08.407Z,99431.91
2023-04-30T00:30:37.360Z,99428.38
2023-04-30T00:33:06.100Z,99435.03
2023-04-30T00:35:34.726Z,99428.69
2023-04-30T00:38:05.127Z,99438.78
2023-04-30T00:40:35.577Z,99436.16
2023-04-30T00:43:04.800Z,99437.03
2023-04-30T00:45:33.503Z,99432.81
2023-04-30T00:48:02.434Z,99433.97
2023-04-30T00:50:31.369Z,99430.19
2023-04-30T00:53:00.214Z,99426.62
2023-04-30T00:55:30.233Z,99429.22
2023-04-30T00:57:59.750Z,99426.44
2023-04-30T01:00:28.824Z,99418.06
2023-04-30T01:02:57.658Z,99416.56
2023-04-30T01:05:26.774Z,99415.59
2023-04-30T01:07:56.404Z,99421.97
2023-04-30T01:10:31.663Z,99420.31
2023-04-30T01:13:06.595Z,99421.56
2023-04-30T01:15:46.089Z,99424.41
2023-04-30T01:18:17.828Z,99422.69
2023-04-30T01:20:52.030Z,99423.91
2023-04-30T01:23:29.713Z,99418.22
2023-04-30T01:26:13.211Z,99419.03
2023-04-30T01:28:45.091Z,99420.75
2023-04-30T01:31:18.222Z,99424.75
2023-04-30T01:33:47.739Z,99427.25
2023-04-30T01:36:42.974Z,99427.31
2023-04-30T01:39:22.268Z,99425.38
2023-04-30T01:41:58.818Z,99428.81
2023-04-30T01:44:42.505Z,99423.53
2023-04-30T01:47:17.129Z,99425.78
2023-04-30T01:49:59.279Z,99430.72
2023-04-30T01:52:33.904Z,99430.81
2023-04-30T01:55:08.490Z,99429.66
2023-04-30T01:57:42.430Z,99429.47
2023-04-30T02:00:17.457Z,99436.84
2023-04-30T02:02:46.466Z,99441.88
2023-04-30T02:05:15.152Z,99438.03
2023-04-30T02:07:45.059Z,99432.13
2023-04-30T02:10:14.391Z,99431.19
2023-04-30T02:12:43.273Z,99444.19
2023-04-30T02:15:13.665Z,99437.06
2023-04-30T02:17:42.864Z,99437.59
2023-04-30T02:20:12.276Z,99433.88
2023-04-30T02:22:40.937Z,99441.41
2023-04-30T02:25:12.449Z,99438.56
2023-04-30T02:27:41.451Z,99438.41
2023-04-30T02:30:13.150Z,99429.22
2023-04-30T02:32:41.917Z,99436.44
2023-04-30T02:35:11.427Z,99449.56
2023-04-30T02:37:40.067Z,99434.47
2023-04-30T02:40:09.879Z,99443.81
2023-04-30T02:42:38.978Z,99444.47
2023-04-30T02:45:08.596Z,99447.72
2023-04-30T02:47:38.652Z,99448.62
2023-04-30T02:50:10.584Z,99442.97
2023-04-30T02:52:39.401Z,99435.16
2023-04-30T02:55:09.418Z,99446.03
2023-04-30T02:57:38.033Z,99449.72
2023-04-30T03:00:08.658Z,99454.03
2023-04-30T03:02:39.628Z,99450.75
2023-04-30T03:05:09.006Z,99458.91
2023-04-30T03:07:38.139Z,99454.47
2023-04-30T03:10:08.191Z,99458.97
2023-04-30T03:12:36.898Z,99447.28
2023-04-30T03:15:07.154Z,99448.94
2023-04-30T03:17:35.803Z,99449.03
2023-04-30T03:20:07.317Z,99447.50
2023-04-30T03:22:36.306Z,99445.47
2023-04-30T03:25:05.363Z,99456.50
2023-04-30T03:27:34.008Z,99455.38
2023-04-30T03:30:02.934Z,99461.59
2023-04-30T03:32:32.420Z,99459.31
2023-04-30T03:35:01.259Z,99456.72
2023-04-30T03:37:32.108Z,99458.13
2023-04-30T03:40:00.954Z,99461.00
2023-04-30T03:42:29.853Z,99453.50
2023-04-30T03:44:58.577Z,99454.22
2023-04-30T03:47:27.212Z,99457.34
2023-04-30T03:49:56.419Z,99451.22
2023-04-30T03:52:26.603Z,99457.44
2023-04-30T03:54:56.882Z,99457.50
2023-04-30T03:57:25.882Z,99458.72
2023-04-30T03:59:54.837Z,99456.09
2023-04-30T04:02:23.836Z,99459.59
2023-04-30T04:04:53.246Z,99471.72
2023-04-30T04:07:21.954Z,99472.00
2023-04-30T04:09:50.766Z,99475.28
2023-04-30T04:12:21.144Z,99468.09
2023-04-30T04:14:49.810Z,99473.63
2023-04-30T04:17:19.980Z,99479.09
2023-04-30T04:19:49.222Z,99488.78
2023-04-30T04:22:17.974Z,99484.50
2023-04-30T04:24:47.913Z,99484.38
2023-04-30T04:27:17.038Z,99480.97
2023-04-30T04:29:47.287Z,99481.72
2023-04-30T04:32:16.250Z,99491.34
2023-04-30T04:34:45.898Z,99486.47
2023-04-30T04:37:15.627Z,99495.44
2023-04-30T04:39:45.116Z,99493.91
2023-04-30T04:42:14.905Z,99502.84
2023-04-30T04:44:43.948Z,99502.72
2023-04-30T04:47:14.183Z,99512.66
2023-04-30T04:49:43.044Z,99511.69
2023-04-30T04:52:12.095Z,99515.28
2023-04-30T04:54:41.118Z,99508.97
2023-04-30T04:57:10.168Z,99514.19
2023-04-30T04:59:38.865Z,99514.53
2023-04-30T05:02:07.568Z,99525.12
2023-04-30T05:04:38.014Z,99524.38
2023-04-30T05:07:08.109Z,99531.53
2023-04-30T05:09:37.213Z,99531.19
2023-04-30T05:12:06.578Z,99539.72
2023-04-30T05:14:35.758Z,99544.66
2023-04-30T05:17:04.805Z,99550.87
2023-04-30T05:19:33.652Z,99546.22
2023-04-30T05:22:04.301Z,99551.44
2023-04-30T05:24:33.496Z,99570.03
2023-04-30T05:27:03.019Z,99552.25
2023-04-30T05:29:31.776Z,99556.19
2023-04-30T05:32:00.820Z,99560.03
2023-04-30T05:34:29.657Z,99566.56
2023-04-30T05:36:58.320Z,99560.44
2023-04-30T05:39:28.680Z,99567.69
2023-04-30T05:41:57.408Z,99576.94
2023-04-30T05:44:26.058Z,99575.44
2023-04-30T05:46:57.636Z,99579.19
2023-04-30T05:49:26.470Z,99586.75
2023-04-30T05:51:55.453Z,99579.88
2023-04-30T05:54:24.192Z,99580.63
2023-04-30T05:56:54.179Z,99579.56
2023-04-30T05:59:23.121Z,99579.28
2023-04-30T06:01:51.923Z,99574.69
2023-04-30T06:04:21.058Z,99585.22
2023-04-30T06:06:49.729Z,99574.78
2023-04-30T06:09:18.468Z,99575.50
2023-04-30T06:11:50.400Z,99573.87
2023-04-30T06:14:22.813Z,99564.22
2023-04-30T06:16:51.948Z,99562.62
2023-04-30T06:19:20.942Z,99561.66
2023-04-30T06:21:49.653Z,99564.59
2023-04-30T06:24:18.611Z,99555.00
2023-04-30T06:26:47.327Z,99557.28
2023-04-30T06:29:15.993Z,99563.16
2023-04-30T06:31:46.523Z,99558.81
2023-04-30T06:34:15.289Z,99552.63
2023-04-30T06:36:43.975Z,99552.66
2023-04-30T06:39:15.412Z,99559.00
2023-04-30T06:41:44.134Z,99577.81
2023-04-30T06:44:13.077Z,99567.50
2023-04-30T06:46:42.038Z,99565.56
2023-04-30T06:49:12.214Z,99568.97
2023-04-30T06:51:42.541Z,99570.94
2023-04-30T06:54:11.242Z,99568.84
2023-04-30T06:56:39.856Z,99572.56
2023-04-30T06:59:08.766Z,99564.94
2023-04-30T07:04:44.853Z,99566.84
2023-04-30T07:07:13.560Z,99563.84
2023-04-30T07:09:42.420Z,99566.37
2023-04-30T07:12:13.694Z,99564.72
2023-04-30T07:14:42.506Z,99567.66
2023-04-30T07:17:11.546Z,99565.66
2023-04-30T07:19:40.165Z,99569.25
2023-04-30T07:22:10.189Z,99575.75
2023-04-30T07:24:39.157Z,99561.34
2023-04-30T07:27:07.797Z,99573.13
2023-04-30T07:29:37.349Z,99570.12
2023-04-30T07:32:06.846Z,99571.72
2023-04-30T07:34:35.510Z,99566.37
2023-04-30T07:37:04.282Z,99570.22
2023-04-30T07:39:34.545Z,99570.53
2023-04-30T07:42:04.106Z,99570.38
2023-04-30T07:44:33.113Z,99569.97
2023-04-30T07:47:01.789Z,99575.66
2023-04-30T07:49:30.525Z,99567.59
2023-04-30T07:52:00.987Z,99581.06
2023-04-30T07:54:29.677Z,99588.63
2023-04-30T07:57:00.072Z,99580.34
2023-04-30T07:59:29.076Z,99577.66
2023-04-30T08:01:57.751Z,99583.63
2023-04-30T08:04:26.960Z,99594.19
2023-04-30T08:06:55.612Z,99594.28
2023-04-30T08:09:24.284Z,99596.56
2023-04-30T08:11:53.240Z,99592.97
2023-04-30T08:14:23.648Z,99591.59
2023-04-30T08:16:52.493Z,99587.06
2023-04-30T08:19:21.432Z,99586.12
2023-04-30T08:21:50.116Z,99586.78
2023-04-30T08:24:18.756Z,99590.09
2023-04-30T08:26:47.863Z,99599.06
2023-04-30T08:29:16.531Z,99578.75
2023-04-30T08:31:46.678Z,99587.63
2023-04-30T08:34:15.561Z,99580.13
2023-04-30T08:36:44.310Z,99580.69
2023-04-30T08:39:13.069Z,99579.34
2023-04-30T08:41:43.378Z,99574.00
2023-04-30T08:44:12.415Z,99583.78
2023-04-30T08:46:42.313Z,99574.44
2023-04-30T08:49:13.018Z,99567.88
2023-04-30T08:51:42.115Z,99578.47
2023-04-30T08:54:12.085Z,99569.25
2023-04-30T08:56:41.064Z,99567.31
2023-04-30T08:59:09.750Z,99565.31
2023-04-30T09:01:38.757Z,99569.56
2023-04-30T09:04:08.123Z,99574.69
2023-04-30T09:06:38.393Z,99578.06
2023-04-30T09:09:12.890Z,99571.28
2023-04-30T09:11:42.003Z,99565.31
2023-04-30T09:14:11.158Z,99576.72
2023-04-30T09:16:48.206Z,99574.84
2023-04-30T09:19:26.474Z,99588.97
2023-04-30T09:21:56.708Z,99577.06
2023-04-30T09:24:25.902Z,99570.00
2023-04-30T09:26:54.964Z,99566.50
2023-04-30T09:29:23.665Z,99566.66
2023-04-30T09:31:52.725Z,99565.50
2023-04-30T09:34:35.239Z,99562.56
2023-04-30T09:37:05.847Z,99559.22
2023-04-30T09:39:34.519Z,99560.13
2023-04-30T09:42:10.040Z,99557.75
2023-04-30T09:44:40.508Z,99551.59
2023-04-30T09:47:14.224Z,99556.28
2023-04-30T09:49:48.316Z,99559.22
2023-04-30T09:52:19.095Z,99556.53
2023-04-30T09:54:48.262Z,99556.59
2023-04-30T09:57:17.267Z,99559.84
2023-04-30T09:59:47.362Z,99557.09
2023-04-30T10:02:17.373Z,99558.72
2023-04-30T10:04:50.477Z,99548.12
2023-04-30T10:07:22.494Z,99551.00
2023-04-30T10:09:53.107Z,99540.38
2023-04-30T10:12:23.763Z,99557.69
2023-04-30T10:14:55.460Z,99555.84
2023-04-30T10:17:27.681Z,99554.84
2023-04-30T10:20:00.037Z,99541.25
2023-04-30T10:22:30.782Z,99538.91
2023-04-30T10:25:00.572Z,99536.28
2023-04-30T10:27:30.090Z,99542.00
2023-04-30T10:30:00.268Z,99552.37
2023-04-30T10:32:34.513Z,99544.69
2023-04-30T10:35:11.154Z,99538.56
2023-04-30T10:37:45.112Z,99538.72
2023-04-30T10:40:14.990Z,99533.38
2023-04-30T10:42:47.179Z,99543.44
2023-04-30T10:45:17.385Z,99535.00
2023-04-30T10:47:46.846Z,99543.69
2023-04-30T10:50:16.564Z,99538.00
2023-04-30T10:52:46.740Z,99538.34
2023-04-30T10:55:18.563Z,99541.81
2023-04-30T10:57:50.304Z,99527.59
2023-04-30T11:00:29.073Z,99540.44
2023-04-30T11:02:59.545Z,99540.19
2023-04-30T11:05:36.771Z,99535.03
2023-04-30T11:08:07.299Z,99535.28
2023-04-30T11:10:36.504Z,99524.41
2023-04-30T11:13:06.857Z,99527.13
2023-04-30T11:15:41.248Z,99523.06
2023-04-30T11:18:10.547Z,99530.47
2023-04-30T11:20:41.998Z,99530.16
2023-04-30T11:23:19.697Z,99532.19
2023-04-30T11:25:57.894Z,99534.28
2023-04-30T11:28:27.571Z,99533.38
2023-04-30T11:30:57.181Z,99524.50
2023-04-30T11:33:27.352Z,99521.69
2023-04-30T11:35:56.782Z,99532.97
2023-04-30T11:38:30.092Z,99526.19
2023-04-30T11:40:59.816Z,99535.09
2023-04-30T11:43:29.524Z,99517.47
2023-04-30T11:46:07.227Z,99538.41
2023-04-30T11:48:37.486Z,99527.87
2023-04-30T11:51:10.668Z,99524.47
2023-04-30T11:53:41.452Z,99528.56
2023-04-30T11:56:10.092Z,99529.63
2023-04-30T11:58:40.240Z,99526.44
2023-04-30T12:01:10.898Z,99532.81
2023-04-30T12:03:46.857Z,99538.56
2023-04-30T12:06:25.504Z,99533.94
2023-04-30T12:08:56.194Z,99531.34
2023-04-30T12:11:26.725Z,99538.97
2023-04-30T12:13:56.793Z,99530.53
2023-04-30T12:16:26.067Z,99522.25
2023-04-30T12:18:55.557Z,99524.44
2023-04-30T12:21:24.445Z,99529.66
2023-04-30T12:23:53.498Z,99530.94
2023-04-30T12:26:23.768Z,99521.59
2023-04-30T12:28:53.467Z,99521.66
2023-04-30T12:31:22.502Z,99527.97
2023-04-30T12:33:57.672Z,99522.00
2023-04-30T12:36:36.676Z,99514.22
2023-04-30T12:39:08.778Z,99520.09
2023-04-30T12:41:42.419Z,99516.44
2023-04-30T12:44:21.197Z,99512.13
2023-04-30T12:46:51.312Z,99505.28
2023-04-30T12:49:26.708Z,99499.81
2023-04-30T12:52:01.402Z,99497.34
2023-04-30T12:54:31.028Z,99497.66
2023-04-30T12:57:03.253Z,99498.72
2023-04-30T12:59:32.718Z,99491.09
2023-04-30T13:02:09.512Z,99485.91
2023-04-30T13:04:38.482Z,99487.09
2023-04-30T13:07:07.524Z,99481.25
2023-04-30T13:09:40.784Z,99489.53
2023-04-30T13:12:11.140Z,99485.88
2023-04-30T13:14:39.839Z,99480.78
2023-04-30T13:17:09.848Z,99478.28
2023-04-30T13:19:38.902Z,99477.03
2023-04-30T13:22:07.899Z,99475.87
2023-04-30T13:24:37.354Z,99452.53
2023-04-30T13:27:06.716Z,99462.09
2023-04-30T13:29:36.796Z,99463.56
2023-04-30T13:32:06.031Z,99460.59
2023-04-30T13:34:35.059Z,99462.81
2023-04-30T13:37:03.753Z,99466.06
2023-04-30T13:39:32.374Z,99457.53
2023-04-30T13:42:01.380Z,99477.34
2023-04-30T13:44:32.782Z,99467.34
2023-04-30T13:47:03.443Z,99466.25
2023-04-30T13:49:32.246Z,99451.66
2023-04-30T13:52:01.412Z,99465.78
2023-04-30T13:54:30.086Z,99462.63
2023-04-30T13:56:59.675Z,99470.78
2023-04-30T13:59:31.810Z,99467.72
2023-04-30T14:02:00.686Z,99463.97
2023-04-30T14:04:31.314Z,99465.22
2023-04-30T14:07:03.327Z,99463.00
2023-04-30T14:09:32.331Z,99464.91
2023-04-30T14:12:00.957Z,99456.78
2023-04-30T14:14:29.740Z,99460.63
2023-04-30T14:16:58.878Z,99465.41
2023-04-30T14:19:27.904Z,99462.84
2023-04-30T14:21:58.095Z,99458.81
2023-04-30T14:24:28.296Z,99475.34
2023-04-30T14:26:57.015Z,99463.28
2023-04-30T14:29:26.188Z,99457.16
2023-04-30T14:31:55.176Z,99457.75
2023-04-30T14:34:24.593Z,99463.69
2023-04-30T14:36:53.279Z,99464.50
2023-04-30T14:39:23.595Z,99458.09
2023-04-30T14:41:53.457Z,99456.88
2023-04-30T14:44:24.982Z,99451.78
2023-04-30T14:46:55.050Z,99454.41
2023-04-30T14:49:24.036Z,99461.34
2023-04-30T14:51:52.671Z,99454.09
2023-04-30T14:54:21.402Z,99471.59
2023-04-30T14:56:51.758Z,99461.47
2023-04-30T14:59:20.492Z,99467.34
2023-04-30T15:01:49.321Z,99468.50
2023-04-30T15:04:18.340Z,99469.09
2023-04-30T15:06:46.989Z,99471.88
2023-04-30T15:09:15.697Z,99476.88
2023-04-30T15:11:44.588Z,99467.25
2023-04-30T15:14:16.882Z,99470.78
2023-04-30T15:16:45.832Z,99467.87
2023-04-30T15:19:14.463Z,99473.50
2023-04-30T15:21:43.460Z,99470.94
2023-04-30T15:24:12.536Z,99471.06
2023-04-30T15:26:41.234Z,99470.56
2023-04-30T15:29:10.591Z,99473.31
2023-04-30T15:31:41.027Z,99483.69
2023-04-30T15:34:09.830Z,99476.88
2023-04-30T15:36:38.485Z,99478.19
2023-04-30T15:39:07.520Z,99493.44
2023-04-30T15:41:36.216Z,99516.81
2023-04-30T15:44:05.072Z,99528.78
2023-04-30T15:46:34.649Z,99535.16
2023-04-30T15:49:04.784Z,99535.59
2023-04-30T15:51:34.212Z,99529.06
2023-04-30T15:54:03.241Z,99534.38
2023-04-30T15:56:31.982Z,99545.09
2023-04-30T15:59:00.747Z,99541.50
2023-04-30T16:01:29.836Z,99549.13
2023-04-30T16:04:00.414Z,99545.28
2023-04-30T16:06:32.176Z,99544.00
2023-04-30T16:09:06.538Z,99540.72
2023-04-30T16:11:35.383Z,99542.94
2023-04-30T16:14:06.561Z,99541.81
2023-04-30T16:16:35.257Z,99540.78
2023-04-30T16:19:08.364Z,99541.09
2023-04-30T16:21:40.605Z,99540.69
2023-04-30T16:24:13.909Z,99546.72
2023-04-30T16:26:42.802Z,99545.69
2023-04-30T16:29:13.447Z,99547.53
2023-04-30T16:31:47.469Z,99548.09
2023-04-30T16:34:16.866Z,99544.91
2023-04-30T16:36:47.544Z,99553.91
2023-04-30T16:39:20.430Z,99551.78
2023-04-30T16:41:49.406Z,99545.31
2023-04-30T16:44:25.589Z,99553.50
2023-04-30T16:46:57.318Z,99548.63
2023-04-30T16:49:26.338Z,99556.59
2023-04-30T16:51:56.839Z,99549.94
2023-04-30T16:54:25.876Z,99550.69
2023-04-30T16:56:55.520Z,99564.13
2023-04-30T16:59:27.167Z,99571.12
2023-04-30T17:01:58.641Z,99573.28
2023-04-30T17:04:27.483Z,99577.34
2023-04-30T17:06:57.791Z,99573.25
2023-04-30T17:09:29.763Z,99579.09
2023-04-30T17:11:59.242Z,99582.66
2023-04-30T17:14:28.616Z,99586.97
2023-04-30T17:16:58.875Z,99589.66
2023-04-30T17:19:27.901Z,99586.91
2023-04-30T17:21:58.796Z,99587.97
2023-04-30T17:24:29.000Z,99577.06
2023-04-30T17:26:59.484Z,99581.31
2023-04-30T17:29:28.709Z,99582.37
2023-04-30T17:31:58.379Z,99577.66
2023-04-30T17:34:27.529Z,99581.84
2023-04-30T17:37:00.645Z,99581.63
2023-04-30T17:39:33.165Z,99578.94
2023-04-30T17:42:07.590Z,99584.44
2023-04-30T17:44:36.843Z,99581.75
2023-04-30T17:47:06.251Z,99587.53
2023-04-30T17:49:39.860Z,99583.91
2023-04-30T17:52:11.786Z,99590.22
2023-04-30T17:54:41.124Z,99594.09
2023-04-30T17:57:10.997Z,99596.25
2023-04-30T17:59:40.812Z,99598.06
2023-04-30T18:02:12.241Z,99599.59
2023-04-30T18:04:41.898Z,99600.13
2023-04-30T18:07:11.957Z,99599.03
2023-04-30T18:09:40.863Z,99599.59
2023-04-30T18:12:09.615Z,99606.50
2023-04-30T18:14:38.260Z,99606.38
2023-04-30T18:17:08.877Z,99606.00
2023-04-30T18:19:44.050Z,99608.81
2023-04-30T18:22:15.068Z,99605.19
2023-04-30T18:24:44.474Z,99616.50
2023-04-30T18:27:13.744Z,99611.59
2023-04-30T18:29:43.067Z,99620.22
2023-04-30T18:32:13.078Z,99618.34
2023-04-30T18:34:42.583Z,99621.69
2023-04-30T18:37:11.298Z,99619.41
2023-04-30T18:39:41.872Z,99620.09
2023-04-30T18:42:12.010Z,99625.41
2023-04-30T18:44:42.264Z,99637.44
2023-04-30T18:47:12.400Z,99640.72
2023-04-30T18:49:41.995Z,99641.00
2023-04-30T18:52:14.816Z,99649.94
2023-04-30T18:54:44.902Z,99651.16
2023-04-30T18:57:16.391Z,99655.56
2023-04-30T18:59:45.622Z,99650.94
2023-04-30T19:02:15.244Z,99671.75
2023-04-30T19:04:59.586Z,99660.63
2023-04-30T19:07:30.130Z,99658.09
2023-04-30T19:10:02.534Z,99670.59
2023-04-30T19:12:32.661Z,99669.94
2023-04-30T19:15:02.607Z,99671.53
2023-04-30T19:17:33.105Z,99682.38
2023-04-30T19:20:03.294Z,99681.97
2023-04-30T19:22:35.928Z,99671.72
2023-04-30T19:25:08.307Z,99673.56
2023-04-30T19:27:37.699Z,99670.97
2023-04-30T19:30:08.233Z,99673.22
2023-04-30T19:32:39.203Z,99672.28
2023-04-30T19:35:09.990Z,99676.97
2023-04-30T19:37:40.324Z,99678.22
2023-04-30T19:40:12.960Z,99680.94
2023-04-30T19:42:45.041Z,99689.94
2023-04-30T19:45:15.121Z,99685.66
2023-04-30T19:47:44.758Z,99688.66
2023-04-30T19:50:13.906Z,99687.47
2023-04-30T19:52:43.248Z,99688.59
2023-04-30T19:55:15.467Z,99689.31
2023-04-30T19:57:45.140Z,99692.91
2023-04-30T20:00:16.719Z,99688.59
2023-04-30T20:02:48.124Z,99684.34
2023-04-30T20:05:17.428Z,99689.41
2023-04-30T20:07:48.978Z,99686.19
2023-04-30T20:10:22.765Z,99687.63
2023-04-30T20:12:54.903Z,99703.56
2023-04-30T20:15:24.495Z,99697.91
2023-04-30T20:17:54.420Z,99695.81
2023-04-30T20:20:26.376Z,99703.50
2023-04-30T20:22:56.789Z,99701.34
2023-04-30T20:25:31.928Z,99714.06
2023-04-30T20:28:01.501Z,99711.19
2023-04-30T20:30:30.600Z,99711.53
2023-04-30T20:32:59.812Z,99711.09
2023-04-30T20:35:29.245Z,99713.72
2023-04-30T20:37:58.795Z,99715.19
2023-04-30T20:40:30.053Z,99716.97
2023-04-30T20:42:59.905Z,99714.75
2023-04-30T20:45:33.956Z,99717.97
2023-04-30T20:48:03.686Z,99728.19
2023-04-30T20:50:32.502Z,99731.41
2023-04-30T20:53:01.470Z,99732.56
2023-04-30T20:55:32.206Z,99730.59
2023-04-30T20:58:01.751Z,99734.06
2023-04-30T21:00:30.723Z,99730.28
2023-04-30T21:02:59.833Z,99739.16
2023-04-30T21:05:30.135Z,99745.34
2023-04-30T21:08:01.266Z,99746.00
2023-04-30T21:10:36.510Z,99754.81
2023-04-30T21:13:08.841Z,99750.75
2023-04-30T21:15:39.185Z,99755.97
2023-04-30T21:18:08.658Z,99758.03
2023-04-30T21:20:37.460Z,99768.88
2023-04-30T21:23:06.210Z,99771.25
2023-04-30T21:25:38.519Z,99778.63
2023-04-30T21:28:07.651Z,99783.22
2023-04-30T21:30:37.118Z,99789.41
2023-04-30T21:33:08.530Z,99790.38
2023-04-30T21:35:40.473Z,99792.56
2023-04-30T21:38:10.976Z,99797.59
2023-04-30T21:40:42.389Z,99799.44
2023-04-30T21:43:11.216Z,99807.41
2023-04-30T21:45:43.395Z,99805.75
2023-04-30T21:48:12.342Z,99816.91
2023-04-30T21:50:41.322Z,99814.16
2023-04-30T21:53:10.767Z,99815.09
2023-04-30T21:55:39.393Z,99813.59
2023-04-30T21:58:09.656Z,99814.97
2023-04-30T22:00:38.756Z,99824.47
2023-04-30T22:03:09.970Z,99821.31
2023-04-30T22:05:39.846Z,99827.72
2023-04-30T22:08:08.960Z,99829.53
2023-04-30T22:10:37.887Z,99828.00
2023-04-30T22:13:06.689Z,99828.13
2023-04-30T22:15:47.035Z,99832.00
2023-04-30T22:18:17.155Z,99832.38
2023-04-30T22:20:46.137Z,99839.59
2023-04-30T22:23:15.718Z,99828.06
2023-04-30T22:25:44.449Z,99834.44
2023-04-30T22:28:16.917Z,99837.75
2023-04-30T22:30:47.083Z,99835.53
2023-04-30T22:33:16.176Z,99837.50
2023-04-30T22:35:44.921Z,99839.03
2023-04-30T22:38:13.806Z,99835.59
2023-04-30T22:40:42.749Z,99834.69
2023-04-30T22:43:11.730Z,99836.91
2023-04-30T22:45:41.176Z,99842.25
2023-04-30T22:48:11.554Z,99839.19
2023-04-30T22:50:40.314Z,99842.84
2023-04-30T22:53:09.037Z,99843.34
2023-04-30T22:55:38.047Z,99847.13
2023-04-30T22:58:06.735Z,99846.38
2023-04-30T23:00:35.865Z,99843.22
2023-04-30T23:03:05.071Z,99844.16
2023-04-30T23:05:35.211Z,99849.97
2023-04-30T23:08:04.513Z,99844.16
2023-04-30T23:10:33.169Z,99848.97
2023-04-30T23:13:04.106Z,99851.41
2023-04-30T23:15:32.858Z,99857.69
2023-04-30T23:18:01.454Z,99850.44
2023-04-30T23:20:30.154Z,99846.81
2023-04-30T23:23:00.392Z,99847.22
2023-04-30T23:25:29.061Z,99841.44
2023-04-30T23:27:59.304Z,99841.87
2023-04-30T23:30:28.317Z,99841.59
2023-04-30T23:32:57.224Z,99843.06
2023-04-30T23:35:26.084Z,99846.44
2023-04-30T23:37:54.936Z,99850.50
2023-04-30T23:40:25.214Z,99844.62
2023-04-30T23:42:53.838Z,99846.09
2023-04-30T23:45:23.224Z,99844.00
2023-04-30T23:47:52.627Z,99841.41
2023-04-30T23:50:21.234Z,99844.66
2023-04-30T23:52:50.265Z,99842.63
2023-04-30T23:55:19.071Z,99837.47
2023-04-30T23:57:49.103Z,99850.28
